Latest Weather Observations for Adelaide Airport

IDS60801

Issued at 7:35 pm CST Monday 21 April 2014 (issued every 30 minutes, with the page automatically refreshed every 10 minutes)

About weather observations | Map of weather stations | Latest weather observations for SA | Other Formats
Station Details ID: 023034 Name: ADELAIDE AIRPORT Lat: -34.95 Lon: 138.52 Height: 2.0 m
Data from the previous 72 hours. | See also: Recent months at Adelaide Airport
Date/Time
CST
Temp
°C
App
Temp
°C
Dew
Point
Rel
Hum
%
Delta-T
°C
Wind Press
QNH
hPa
Press
MSL
hPa
Rain
since 9 am
mm
Dir
 
Spd
km/h
Gust
km/h
Spd
kts
Gust
kts
21/07:30pm 24.1 20.8 8.1 36 8.5 N 15 26 8 14 1011.1 - 0.0
21/07:00pm 25.6 21.5 6.1 28 10.1 N 17 26 9 14 1010.6 - 0.0
21/06:30pm 26.0 20.5 5.8 27 10.4 N 24 33 13 18 1010.5 - 0.0
21/05:30pm 26.3 20.8 7.5 30 10.0 N 26 35 14 19 1010.2 - 0.0
21/05:00pm 26.9 20.1 6.8 28 10.6 N 32 39 17 21 1010.0 - 0.0
21/04:30pm 27.3 19.9 6.9 27 10.8 N 35 48 19 26 1010.0 - 0.0
21/04:00pm 27.7 21.0 7.3 27 10.9 N 32 43 17 23 1010.1 - 0.0
21/03:30pm 27.0 20.4 8.4 31 10.1 NNW 33 46 18 25 1010.5 - 0.0
21/03:00pm 26.7 19.6 8.2 31 10.0 N 35 48 19 26 1010.6 1010.6 0.0
21/02:30pm 27.3 19.3 7.5 28 10.6 N 39 52 21 28 1010.7 - 0.0
21/02:00pm 26.7 19.6 7.9 30 10.1 N 35 48 19 26 1010.8 - 0.0
21/01:30pm 26.9 19.4 7.9 30 10.2 N 37 48 20 26 1011.1 - 0.0
21/01:00pm 27.0 19.0 7.5 29 10.4 N 39 52 21 28 1011.5 - 0.0
21/12:47pm 27.0 18.9 7.0 28 10.6 N 39 61 21 33 1011.7 - 0.0
21/12:30pm 26.9 18.5 7.4 29 10.4 N 41 56 22 30 1011.9 - 0.0
21/12:16pm 26.8 19.3 8.0 30 10.1 N 37 56 20 30 1012.1 - 0.0
21/12:00pm 26.1 18.5 7.7 31 9.8 N 37 52 20 28 1012.4 1012.4 0.0
21/11:30am 25.8 17.8 7.5 31 9.7 NNW 39 65 21 35 1012.7 - 0.0
21/11:00am 25.5 19.1 8.4 33 9.2 N 32 50 17 27 1013.2 - 0.0
21/10:50am 25.5 19.7 7.8 32 9.4 N 28 48 15 26 1013.3 - 0.0
21/10:30am 24.6 17.6 6.7 31 9.3 N 33 50 18 27 1013.3 - 0.0
21/10:00am 24.4 17.5 6.6 32 9.2 N 32 41 17 22 1013.6 - 0.0
21/09:30am 23.2 17.5 6.9 35 8.4 N 26 32 14 17 1013.8 - 0.0
21/09:00am 22.9 16.8 6.5 34 8.4 NNE 28 35 15 19 1014.0 1014.0 0.0
21/08:30am 21.6 15.9 6.7 38 7.6 NNE 26 33 14 18 1013.9 - 0.0
21/08:00am 20.9 15.4 6.1 38 7.4 NNE 24 30 13 16 1013.9 - 0.0
21/07:30am 20.3 15.6 6.1 39 7.1 NNE 20 28 11 15 1013.8 - 0.0
21/07:00am 19.7 15.0 6.0 40 6.8 NE 20 30 11 16 1013.5 - 0.0
21/06:30am 19.4 14.7 6.1 42 6.6 NE 20 28 11 15 1013.4 - 0.0
21/06:00am 19.9 15.1 5.5 39 7.1 NE 20 32 11 17 1013.5 1013.5 0.0
21/05:30am 20.0 14.4 5.6 39 7.1 NE 24 30 13 16 1013.3 - 0.0
21/05:00am 19.9 14.3 5.5 39 7.1 NE 24 33 13 18 1013.4 - 0.0
21/04:30am 19.9 14.4 5.7 39 7.0 NE 24 32 13 17 1013.5 - 0.0
21/04:00am 19.8 13.5 5.9 40 6.9 NE 28 33 15 18 1013.6 - 0.0
21/03:30am 19.6 14.9 6.1 41 6.7 NNE 20 26 11 14 1014.1 - 0.0
21/03:00am 19.9 14.8 6.0 40 6.9 NNE 22 30 12 16 1014.1 1014.1 0.0
21/02:30am 19.9 14.5 6.3 41 6.8 NE 24 32 13 17 1014.3 - 0.0
21/02:00am 19.2 14.7 6.9 44 6.2 NE 20 26 11 14 1014.8 - 0.0
21/01:30am 18.6 14.9 7.8 49 5.5 NE 17 22 9 12 1015.2 - 0.0
21/01:00am 18.3 14.1 8.4 52 5.1 NE 20 26 11 14 1015.5 - 0.0
21/12:30am 17.9 13.5 9.1 56 4.6 NE 22 30 12 16 1015.6 - 0.0
21/12:00am 17.3 13.6 9.4 59 4.1 NNE 19 24 10 13 1016.1 1016.1 0.0
 
Date/Time
CST
Temp
°C
App
Temp
°C
Dew
Point
Rel
Hum
%
Delta-T
°C
Wind Press
QNH
hPa
Press
MSL
hPa
Rain
since 9 am
mm
Dir
 
Spd
km/h
Gust
km/h
Spd
kts
Gust
kts
20/11:30pm 15.7 13.1 9.3 65 3.3 NNE 13 15 7 8 1016.4 - 0.0
20/11:00pm 15.8 13.7 9.9 68 3.1 NNE 11 11 6 6 1016.7 - 0.0
20/10:30pm 15.4 14.3 10.7 73 2.5 ENE 7 9 4 5 1017.0 - 0.0
20/10:00pm 14.9 13.1 10.7 76 2.2 NE 11 13 6 7 1017.3 - 0.0
20/09:30pm 15.0 14.3 11.4 79 1.9 E 6 7 3 4 1017.8 - 0.0
20/09:00pm 15.2 14.3 11.5 78 2.0 ESE 7 9 4 5 1017.7 1017.7 0.0
20/08:30pm 15.7 16.3 11.8 77 2.1 CALM 0 0 0 0 1017.8 - 0.0
20/08:00pm 16.0 16.5 11.5 74 2.4 CALM 0 0 0 0 1017.9 - 0.0
20/07:30pm 16.9 16.4 12.0 73 2.7 E 6 6 3 3 1018.0 - 0.0
20/07:00pm 17.4 16.7 11.5 68 3.2 E 6 7 3 4 1017.8 - 0.0
20/06:30pm 18.4 16.9 11.8 65 3.6 SSW 11 13 6 7 1018.0 - 0.0
20/06:00pm 17.9 16.8 11.9 68 3.3 SW 9 11 5 6 1017.7 1017.7 0.0
20/05:30pm 18.5 17.2 11.3 63 3.9 SW 9 9 5 5 1017.3 - 0.0
20/05:00pm 19.2 17.8 9.6 53 5.1 S 7 11 4 6 1016.9 - 0.0
20/04:30pm 19.3 17.0 9.0 51 5.4 SW 11 13 6 7 1017.5 - 0.0
20/04:00pm 19.9 17.4 8.3 47 6.0 WSW 11 15 6 8 1017.3 - 0.0
20/03:30pm 20.8 18.6 7.8 43 6.7 SW 9 13 5 7 1017.2 - 0.0
20/03:00pm 20.9 18.7 7.7 42 6.8 W 9 13 5 7 1017.3 1017.3 0.0
20/02:30pm 21.4 19.1 7.4 40 7.2 W 9 13 5 7 1017.2 - 0.0
20/02:00pm 20.2 17.7 6.7 41 6.8 WSW 9 13 5 7 1017.4 - 0.0
20/01:30pm 19.8 16.1 6.1 40 6.8 W 15 19 8 10 1017.6 - 0.0
20/01:00pm 19.8 16.3 7.4 44 6.3 WSW 15 19 8 10 1017.8 - 0.0
20/12:30pm 19.6 15.5 6.4 42 6.6 W 17 20 9 11 1018.2 - 0.0
20/12:00pm 19.4 15.0 4.9 38 7.0 WSW 17 22 9 12 1018.5 1018.5 0.0
20/11:30am 19.3 15.3 6.5 43 6.4 W 17 19 9 10 1018.7 - 0.0
20/11:00am 19.5 16.5 7.5 45 6.1 NNW 13 17 7 9 1018.8 - 0.0
20/10:30am 19.5 17.5 7.3 45 6.2 N 7 13 4 7 1018.7 - 0.0
20/10:00am 18.9 16.8 8.2 50 5.5 NNW 9 15 5 8 1019.1 - 0.0
20/09:30am 18.0 16.1 7.5 50 5.3 N 7 11 4 6 1019.4 - 0.0
20/09:00am 17.0 14.5 6.6 50 5.1 NE 9 13 5 7 1019.5 1019.5 0.0
20/08:30am 15.5 12.2 6.4 54 4.4 NE 13 15 7 8 1019.1 - 0.0
20/08:00am 13.4 11.4 7.0 65 3.1 ENE 7 9 4 5 1018.9 - 0.0
20/07:30am 11.2 9.2 7.2 76 1.9 NE 7 9 4 5 1018.5 - 0.0
20/07:00am 9.5 6.9 6.2 80 1.5 NE 9 9 5 5 1018.4 - 0.0
20/06:30am 10.2 8.0 6.3 77 1.8 NE 7 9 4 5 1018.1 - 0.0
20/06:00am 9.7 7.1 6.2 79 1.6 NE 9 9 5 5 1017.8 1017.8 0.0
20/05:30am 10.1 7.9 6.2 77 1.8 NE 7 7 4 4 1017.7 - 0.0
20/05:00am 10.5 8.3 6.4 76 1.9 NE 7 9 4 5 1017.5 - 0.0
20/04:30am 11.1 8.9 6.2 72 2.3 NE 7 7 4 4 1017.4 - 0.0
20/04:00am 11.9 9.9 6.9 71 2.4 NE 7 9 4 5 1017.4 - 0.0
20/03:30am 13.6 12.2 7.2 65 3.1 ENE 4 9 2 5 1017.4 - 0.0
20/03:00am 13.5 13.1 8.3 71 2.6 CALM 0 0 0 0 1017.5 1017.5 0.0
20/02:30am 13.6 13.0 7.5 66 3.0 CALM 0 0 0 0 1017.3 - 0.0
20/02:00am 13.3 11.5 7.1 66 3.0 SE 6 7 3 4 1017.6 - 0.0
20/01:30am 12.8 10.5 7.4 69 2.6 NE 9 11 5 6 1017.6 - 0.0
20/01:00am 13.3 10.9 6.9 65 3.1 NNE 9 11 5 6 1017.8 - 0.0
20/12:30am 13.3 10.5 6.9 65 3.1 NNE 11 13 6 7 1017.8 - 0.0
20/12:00am 13.0 11.1 7.5 69 2.7 NE 7 9 4 5 1017.7 1017.7 0.0
 
Date/Time
CST
Temp
°C
App
Temp
°C
Dew
Point
Rel
Hum
%
Delta-T
°C
Wind Press
QNH
hPa
Press
MSL
hPa
Rain
since 9 am
mm
Dir
 
Spd
km/h
Gust
km/h
Spd
kts
Gust
kts
19/11:30pm 12.5 9.7 6.9 68 2.7 NE 11 13 6 7 1017.9 - 0.0
19/11:00pm 11.9 9.4 6.4 69 2.6 E 9 13 5 7 1017.8 - 0.0
19/10:30pm 12.2 9.4 7.0 70 2.5 E 11 13 6 7 1018.2 - 0.0
19/10:00pm 12.9 11.1 7.3 69 2.7 ENE 6 7 3 4 1018.7 - 0.0
19/09:30pm 13.0 10.6 7.2 68 2.8 E 9 13 5 7 1018.7 - 0.0
19/09:00pm 12.2 10.5 7.4 72 2.3 E 6 6 3 3 1018.6 1018.6 0.0
19/08:30pm 11.8 9.9 7.7 76 2.0 E 7 7 4 4 1018.6 - 0.0
19/08:00pm 12.6 10.9 7.4 70 2.5 E 6 7 3 4 1018.6 - 0.0
19/07:30pm 13.2 11.0 7.7 69 2.7 ESE 9 9 5 5 1018.8 - 0.0
19/07:00pm 14.2 12.2 7.2 63 3.4 SE 7 9 4 5 1018.7 - 0.0
19/06:30pm 14.2 11.4 6.8 61 3.6 SSE 11 13 6 7 1018.7 - 0.0
19/06:00pm 15.2 12.3 6.5 56 4.2 S 11 15 6 8 1018.8 1018.8 0.0
19/05:30pm 16.1 12.9 7.0 54 4.5 S 13 17 7 9 1018.7 - 0.0
19/05:00pm 16.8 13.1 6.4 50 5.1 SSW 15 19 8 10 1018.7 - 0.0
19/04:30pm 16.9 12.9 6.5 50 5.1 SW 17 20 9 11 1018.8 - 0.0
19/04:00pm 16.8 12.5 6.9 52 4.9 SW 19 28 10 15 1019.0 - 0.0
19/03:30pm 17.7 13.2 6.3 47 5.6 SW 19 26 10 14 1019.1 - 0.0
19/03:00pm 17.9 13.7 5.5 44 6.0 SW 17 24 9 13 1019.1 1019.1 0.0
19/02:30pm 17.4 12.7 5.3 45 5.8 WSW 19 24 10 13 1019.3 - 0.0
19/02:00pm 17.3 13.0 5.2 45 5.8 WSW 17 24 9 13 1019.4 - 0.0
19/01:30pm 17.8 13.5 5.4 44 6.0 W 17 24 9 13 1019.8 - 0.0
19/01:00pm 17.9 13.5 4.9 42 6.2 WSW 17 22 9 12 1020.3 - 0.0
19/12:30pm 17.6 12.9 5.1 43 6.0 WSW 19 24 10 13 1020.9 - 0.0
19/12:00pm 18.1 15.2 4.7 41 6.4 N 9 17 5 9 1021.3 1021.3 0.0
19/11:30am 17.7 14.7 4.0 40 6.4 S 9 13 5 7 1021.7 - 0.0
19/11:00am 17.6 14.1 3.6 39 6.5 NE 11 19 6 10 1022.0 - 0.0
19/10:30am 17.2 12.8 4.7 43 5.9 NE 17 20 9 11 1022.3 - 0.0
19/10:00am 16.8 11.9 5.3 46 5.5 NNE 20 26 11 14 1022.7 - 0.0
19/09:30am 15.8 11.2 6.5 54 4.5 NE 20 26 11 14 1022.9 - 0.0
19/09:00am 14.6 10.2 7.2 61 3.6 NNE 20 26 11 14 1023.1 1023.1 0.0
19/08:30am 13.7 10.3 7.6 66 3.0 NNE 15 19 8 10 1023.1 - 0.0
19/08:00am 13.3 9.5 7.6 68 2.8 NNE 17 20 9 11 1022.9 - 0.0
19/07:30am 12.9 8.7 7.6 70 2.6 NNE 19 22 10 12 1022.6 - 0.0
19/07:00am 12.3 9.4 8.0 75 2.1 NNE 13 17 7 9 1022.5 - 0.0
19/06:30am 12.2 10.1 8.1 76 2.0 ENE 9 11 5 6 1022.6 - 0.0
19/06:00am 11.3 8.8 8.0 80 1.6 NE 11 13 6 7 1022.5 1022.5 0.0
19/05:30am 11.0 8.8 7.9 81 1.5 NNE 9 11 5 6 1022.3 - 0.0
19/05:00am 11.1 9.5 7.8 80 1.6 NE 6 7 3 4 1022.3 - 0.0
19/04:30am 10.8 8.9 7.7 81 1.5 NE 7 9 4 5 1022.0 - 0.0
19/04:00am 10.4 8.5 7.7 83 1.3 E 7 9 4 5 1022.1 - 0.0
19/03:30am 9.9 7.5 7.1 83 1.3 NE 9 9 5 5 1022.2 - 0.0
19/03:00am 9.9 7.5 6.9 81 1.4 NE 9 11 5 6 1022.1 1022.1 0.0
19/02:30am 11.0 10.4 7.2 77 1.8 CALM 0 4 0 2 1022.4 - 0.0
19/02:00am 11.4 9.5 7.7 78 1.8 NE 7 7 4 4 1022.7 - 0.0
19/01:30am 12.0 9.9 8.1 77 1.9 NE 9 9 5 5 1022.9 - 0.0
19/01:00am 11.9 11.4 8.0 77 1.9 CALM 0 6 0 3 1023.1 - 0.0
19/12:30am 11.3 10.0 7.6 78 1.8 NNE 4 7 2 4 1023.1 - 0.0
19/12:00am 10.9 10.2 7.1 77 1.8 CALM 0 0 0 0 1023.1 1023.1 0.0
 
Date/Time
CST
Temp
°C
App
Temp
°C
Dew
Point
Rel
Hum
%
Delta-T
°C
Wind Press
QNH
hPa
Press
MSL
hPa
Rain
since 9 am
mm
Dir
 
Spd
km/h
Gust
km/h
Spd
kts
Gust
kts
18/11:30pm 10.6 9.9 7.0 78 1.7 CALM 0 0 0 0 1023.3 - 0.0
18/11:00pm 10.2 9.4 6.5 78 1.7 CALM 0 0 0 0 1023.4 - 0.0
18/10:30pm 9.9 7.9 6.2 78 1.7 E 6 6 3 3 1023.5 - 0.0
18/10:00pm 11.3 9.2 5.9 69 2.5 SE 6 7 3 4 1023.6 - 0.0
18/09:30pm 11.0 8.8 6.0 71 2.3 SE 7 7 4 4 1023.7 - 0.0
18/09:00pm 12.0 9.7 5.5 64 3.0 ESE 7 7 4 4 1023.7 1023.7 0.0
18/08:30pm 12.3 10.0 5.6 63 3.1 SSE 7 9 4 5 1023.6 - 0.0
18/08:00pm 13.4 11.0 5.2 57 3.8 SSE 7 7 4 4 1023.5 - 0.0

Other Formats:

Comma delimited format used in spreadsheet applications
http://www.bom.gov.au/fwo/IDS60801/IDS60801.94672.axf

JavaScript Object Notation format (JSON) in row-major order
http://www.bom.gov.au/fwo/IDS60801/IDS60801.94672.json